Hlavní strana
METAR-TAF:

METAR-TAF

Letiště :

Córdoba, Argentina

zeměpisná šířka: 31-19S, zeměpisná délka: 064-13W, výška: 484 m

Aktuální stav počasí

Zpráva byla vytvořena před 19 minutami, v 00:00 UTC
Bezvětří
Teplota 17°C
Vlhkost vzduchu 94%
Tlak 1015 hPa
Viditelnost 10 km a více
Skoro jasno ve výšce 2000 ft

METAR: SACO 180000Z 00000KT 9999 FEW020 17/16 Q1015

Čas: 21:19 (00:19 UTC)

Předpověď počasí

Zpráva byla vytvořena před 1 hodinou a 19 minutami, v 23:00 UTC
Předpověď platná od 18 v 00 UTC do 18 v 24 UTC
Severní vítr 5 kt
Viditelnost 10 km a více
Polojasno ve výšce 3000 ft

TAF: SACO 172300Z 1800/1824 36005KT 9999 SCT030 TX25/1818Z TN17/1810Z

Stav a předpovědi počasí z více než 4 000 letišť (zprávy METAR a TAF).

Červené a žluté tečky na mapě představují dostupné meteorologické stanice.

Když kurzor umístíte na tečku, zobrazí se název stanice.

Pak kliknutím zobrazíte stav a předpověď počasí.

Chcete-li změnit mapu, kliknutím na zelené tlačítko se znaménkem +mapu přiblížíte, kliknutím na zelené tlačítko se znaménkem – mapu oddálíte a kliknutím na zelené šipky přejdete na sousední mapy.


METAR-TAF: